createdAt,value
2022-10-29T00:00:30.980Z,17.57
2022-10-29T00:05:38.158Z,17.93
2022-10-29T00:10:44.297Z,19.45
2022-10-29T00:15:50.795Z,19.11
2022-10-29T00:20:56.841Z,17.54
2022-10-29T00:26:03.031Z,21.07
2022-10-29T00:31:10.109Z,17.30
2022-10-29T00:36:16.411Z,22.09
2022-10-29T00:41:22.829Z,18.85
2022-10-29T00:46:29.328Z,18.06
2022-10-29T00:51:35.364Z,20.86
2022-10-29T00:56:43.433Z,20.15
2022-10-29T01:01:49.668Z,19.11
2022-10-29T01:06:55.686Z,21.37
2022-10-29T01:12:01.751Z,17.50
2022-10-29T01:17:07.936Z,20.35
2022-10-29T01:22:15.312Z,19.91
2022-10-29T01:27:21.831Z,16.78
2022-10-29T01:32:28.011Z,19.61
2022-10-29T01:37:34.881Z,19.26
2022-10-29T01:42:40.954Z,23.23
2022-10-29T01:47:47.229Z,16.76
2022-10-29T01:52:53.317Z,15.58
2022-10-29T01:57:59.593Z,22.75
2022-10-29T02:03:06.040Z,20.84
2022-10-29T02:08:14.585Z,18.64
2022-10-29T02:13:20.753Z,16.09
2022-10-29T02:19:34.836Z,20.15
2022-10-29T02:24:40.913Z,15.44
2022-10-29T02:29:47.155Z,19.55
2022-10-29T02:34:53.227Z,16.34
2022-10-29T02:39:59.722Z,17.11
2022-10-29T02:45:05.875Z,15.41
2022-10-29T02:50:12.554Z,16.66
2022-10-29T02:55:18.623Z,18.25
2022-10-29T03:00:24.896Z,17.73
2022-10-29T03:05:30.971Z,13.79
2022-10-29T03:10:37.688Z,16.82
2022-10-29T03:15:43.771Z,15.02
2022-10-29T03:20:49.976Z,13.31
2022-10-29T03:25:56.436Z,12.92
2022-10-29T03:31:06.595Z,19.03
2022-10-29T03:36:02.791Z,14.42
2022-10-29T03:41:09.210Z,14.64
2022-10-29T03:46:15.626Z,15.26
2022-10-29T03:51:22.239Z,12.92
2022-10-29T03:56:28.335Z,14.60
2022-10-29T04:01:35.019Z,13.58
2022-10-29T04:06:41.049Z,16.04
2022-10-29T04:11:48.048Z,12.06
2022-10-29T04:16:55.234Z,13.91
2022-10-29T04:28:29.012Z,11.49
2022-10-29T04:32:07.972Z,17.17
2022-10-29T04:37:14.016Z,13.63
2022-10-29T04:42:20.427Z,13.70
2022-10-29T04:47:26.553Z,14.36
2022-10-29T04:52:32.750Z,11.50
2022-10-29T04:57:39.153Z,13.43
2022-10-29T05:02:45.361Z,12.91
2022-10-29T05:07:51.512Z,15.11
2022-10-29T05:12:58.308Z,16.03
2022-10-29T05:18:04.205Z,15.44
2022-10-29T05:23:10.400Z,13.63
2022-10-29T05:28:17.467Z,13.52
2022-10-29T05:33:24.977Z,14.95
2022-10-29T05:38:31.025Z,12.99
2022-10-29T05:43:37.388Z,12.57
2022-10-29T05:48:43.457Z,10.63
2022-10-29T05:53:49.732Z,13.28
2022-10-29T05:58:55.797Z,16.15
2022-10-29T06:04:02.332Z,16.27
2022-10-29T06:09:11.443Z,18.27
2022-10-29T06:14:20.618Z,14.71
2022-10-29T06:19:27.812Z,17.15
2022-10-29T06:24:33.934Z,13.22
2022-10-29T06:29:40.311Z,16.45
2022-10-29T06:34:46.465Z,14.61
2022-10-29T06:39:52.522Z,14.08
2022-10-29T06:44:58.879Z,13.96
2022-10-29T06:50:04.939Z,13.61
2022-10-29T06:55:12.047Z,14.53
2022-10-29T07:00:19.151Z,14.37
2022-10-29T07:05:25.348Z,14.14
2022-10-29T07:10:31.768Z,14.99
2022-10-29T07:15:38.290Z,16.79
2022-10-29T07:20:44.732Z,20.48
2022-10-29T07:25:50.921Z,27.43
2022-10-29T07:30:57.007Z,27.68
2022-10-29T07:36:03.212Z,27.71
2022-10-29T07:41:09.280Z,37.04
2022-10-29T07:46:15.731Z,33.93
2022-10-29T07:51:22.075Z,42.26
2022-10-29T07:56:28.362Z,43.18
2022-10-29T08:01:34.831Z,42.73
2022-10-29T08:06:41.350Z,48.98
2022-10-29T08:16:53.375Z,57.10
2022-10-29T08:21:59.475Z,52.93
2022-10-29T08:27:06.516Z,63.23
2022-10-29T08:32:12.670Z,68.23
2022-10-29T08:37:19.170Z,58.98
2022-10-29T08:42:26.304Z,47.67
2022-10-29T08:47:32.486Z,52.73
2022-10-29T08:52:48.236Z,45.09
2022-10-29T08:57:45.535Z,45.09
2022-10-29T09:02:51.696Z,44.35
2022-10-29T09:08:01.258Z,41.57
2022-10-29T09:13:06.879Z,39.11
2022-10-29T09:18:13.474Z,41.26
2022-10-29T09:23:19.831Z,34.33
2022-10-29T09:28:25.985Z,36.19
2022-10-29T09:33:33.130Z,33.53
2022-10-29T09:38:40.275Z,36.13
2022-10-29T09:44:35.500Z,30.14
2022-10-29T09:49:41.643Z,29.59
2022-10-29T09:54:48.581Z,29.91
2022-10-29T09:59:55.236Z,32.41
2022-10-29T10:05:01.317Z,27.62
2022-10-29T10:10:08.535Z,31.27
2022-10-29T10:15:14.631Z,26.33
2022-10-29T10:20:26.893Z,29.78
2022-10-29T10:25:24.007Z,32.89
2022-10-29T10:30:30.196Z,32.74
2022-10-29T10:35:37.313Z,30.59
2022-10-29T10:40:43.816Z,26.48
2022-10-29T10:45:49.889Z,26.52
2022-10-29T10:50:56.047Z,30.03
2022-10-29T10:56:03.263Z,27.36
2022-10-29T11:01:10.517Z,25.25
2022-10-29T11:06:16.833Z,26.17
2022-10-29T11:11:23.503Z,26.59
2022-10-29T11:16:29.894Z,28.63
2022-10-29T11:21:45.507Z,30.62
2022-10-29T11:26:51.939Z,28.34
2022-10-29T11:31:58.184Z,27.97
2022-10-29T11:37:09.220Z,28.26
2022-10-29T11:42:05.694Z,25.97
2022-10-29T11:47:12.213Z,26.71
2022-10-29T11:52:19.416Z,24.62
2022-10-29T11:57:26.497Z,31.10
2022-10-29T12:02:32.746Z,28.04
2022-10-29T12:07:39.287Z,27.40
2022-10-29T12:12:45.830Z,26.12
2022-10-29T12:17:52.313Z,30.56
2022-10-29T12:23:02.615Z,27.95
2022-10-29T12:28:04.193Z,28.87
2022-10-29T12:33:10.382Z,29.75
2022-10-29T12:38:16.775Z,29.69
2022-10-29T12:43:22.914Z,29.81
2022-10-29T12:48:30.362Z,23.73
2022-10-29T12:53:36.500Z,31.30
2022-10-29T12:58:43.706Z,25.75
2022-10-29T13:03:51.056Z,24.17
2022-10-29T13:08:57.273Z,28.59
2022-10-29T13:14:03.510Z,27.36
2022-10-29T13:19:10.602Z,23.58
2022-10-29T13:24:16.897Z,21.88
2022-10-29T13:29:22.934Z,22.69
2022-10-29T13:34:29.128Z,18.80
2022-10-29T13:39:35.526Z,23.63
2022-10-29T13:44:41.725Z,20.89
2022-10-29T13:49:47.797Z,22.32
2022-10-29T13:54:53.953Z,20.35
2022-10-29T14:00:00.090Z,21.78
2022-10-29T14:05:06.260Z,24.82
2022-10-29T14:10:12.681Z,21.20
2022-10-29T14:15:18.925Z,24.02
2022-10-29T14:20:24.969Z,22.94
2022-10-29T14:25:31.217Z,22.18
2022-10-29T14:30:37.293Z,20.40
2022-10-29T14:35:43.585Z,19.50
2022-10-29T14:40:49.692Z,27.96
2022-10-29T14:45:55.911Z,26.33
2022-10-29T14:51:02.126Z,23.97
2022-10-29T14:56:08.387Z,20.65
2022-10-29T15:01:14.740Z,22.94
2022-10-29T15:06:21.518Z,22.07
2022-10-29T15:11:27.592Z,25.88
2022-10-29T15:16:38.126Z,30.90
2022-10-29T15:21:39.453Z,31.54
2022-10-29T15:26:45.587Z,29.58
2022-10-29T15:31:51.750Z,30.05
2022-10-29T15:36:57.954Z,32.16
2022-10-29T15:42:04.022Z,26.53
2022-10-29T15:47:13.336Z,28.19
2022-10-29T15:52:19.443Z,29.25
2022-10-29T15:57:25.674Z,32.14
2022-10-29T16:02:31.971Z,31.25
2022-10-29T16:07:38.550Z,24.37
2022-10-29T16:12:44.695Z,31.30
2022-10-29T16:17:51.451Z,45.45
2022-10-29T16:22:57.531Z,60.85
2022-10-29T16:28:04.206Z,44.61
2022-10-29T16:33:10.630Z,45.48
2022-10-29T16:38:16.931Z,43.89
2022-10-29T16:43:23.044Z,29.06
2022-10-29T16:48:29.232Z,29.11
2022-10-29T16:53:35.318Z,28.95
2022-10-29T16:58:41.490Z,26.37
2022-10-29T17:03:47.576Z,25.62
2022-10-29T17:08:53.753Z,22.43
2022-10-29T17:13:59.935Z,29.14
2022-10-29T17:19:06.445Z,27.37
2022-10-29T17:24:12.540Z,32.46
2022-10-29T17:29:18.797Z,32.39
2022-10-29T17:34:24.844Z,28.84
2022-10-29T17:39:31.170Z,32.11
2022-10-29T17:44:37.601Z,30.41
2022-10-29T17:49:43.825Z,32.83
2022-10-29T17:54:50.307Z,31.97
2022-10-29T17:59:56.653Z,32.49
2022-10-29T18:05:03.088Z,32.54
2022-10-29T18:10:09.418Z,36.83
2022-10-29T18:15:15.828Z,31.52
2022-10-29T18:20:22.069Z,32.24
2022-10-29T18:25:28.322Z,26.76
2022-10-29T18:30:34.454Z,37.79
2022-10-29T18:35:40.563Z,33.21
2022-10-29T18:40:46.895Z,38.14
2022-10-29T18:45:53.374Z,36.19
2022-10-29T18:50:59.521Z,33.13
2022-10-29T18:56:05.724Z,33.80
2022-10-29T19:01:12.220Z,33.92
2022-10-29T19:06:18.183Z,29.94
2022-10-29T19:11:24.712Z,33.20
2022-10-29T19:16:30.817Z,35.79
2022-10-29T19:21:37.056Z,39.76
2022-10-29T19:26:43.140Z,34.15
2022-10-29T19:31:49.495Z,36.61
2022-10-29T19:36:57.940Z,34.58
2022-10-29T19:42:04.133Z,31.38
2022-10-29T19:47:10.270Z,33.49
2022-10-29T19:52:16.521Z,36.09
2022-10-29T19:57:22.781Z,31.77
2022-10-29T20:02:29.133Z,32.25
2022-10-29T20:07:35.194Z,32.63
2022-10-29T20:12:41.805Z,29.33
2022-10-29T20:17:47.930Z,29.54
2022-10-29T20:22:54.187Z,30.85
2022-10-29T20:28:00.696Z,32.60
2022-10-29T20:33:06.912Z,30.13
2022-10-29T20:38:13.051Z,25.83
2022-10-29T20:43:19.343Z,29.92
2022-10-29T20:48:25.463Z,26.46
2022-10-29T20:53:31.982Z,21.84
2022-10-29T20:58:38.126Z,26.27
2022-10-29T21:03:44.317Z,24.92
2022-10-29T21:08:50.462Z,25.41
2022-10-29T21:13:56.989Z,24.12
2022-10-29T21:19:03.067Z,27.08
2022-10-29T21:24:09.321Z,27.04
2022-10-29T21:29:15.493Z,23.98
2022-10-29T21:34:22.043Z,27.52
2022-10-29T21:39:28.180Z,27.44
2022-10-29T21:44:34.498Z,26.07
2022-10-29T21:49:40.668Z,24.17
2022-10-29T21:54:47.413Z,22.54
2022-10-29T21:59:53.510Z,23.51
2022-10-29T22:04:59.871Z,21.12
2022-10-29T22:10:06.005Z,20.56
2022-10-29T22:15:12.275Z,22.91
2022-10-29T22:20:18.327Z,21.29
2022-10-29T22:26:17.277Z,22.47
2022-10-29T22:31:26.254Z,19.96
2022-10-29T22:36:33.083Z,19.78
2022-10-29T22:41:39.184Z,21.00
2022-10-29T22:46:45.435Z,18.57
2022-10-29T22:51:51.556Z,20.75
2022-10-29T22:56:57.737Z,18.37
2022-10-29T23:02:04.369Z,22.05
2022-10-29T23:07:10.501Z,25.49
2022-10-29T23:12:16.702Z,23.88
2022-10-29T23:17:23.039Z,20.81
2022-10-29T23:22:53.702Z,19.36
2022-10-29T23:27:29.895Z,21.66
2022-10-29T23:32:36.324Z,21.92
2022-10-29T23:37:42.685Z,20.18
2022-10-29T23:42:48.864Z,19.33
2022-10-29T23:47:55.420Z,19.07
2022-10-29T23:53:00.952Z,20.80
2022-10-29T23:58:06.917Z,17.94
